Time;durP1;ratioP1;P1;durP2;ratioP2;P2;SDS_P1;SDS_P2;PMS_P1;PMS_P2;Temp;Humidity;BMP_temperature;BMP_pressure;BME280_temperature;BME280_humidity;BME280_pressure;Samples;Min_cycle;Max_cycle;Signal;HPM_P1;HPM_P2
2023/09/12 00:02:28;;;;;;;71.80;68.10;;;;;;;25.87;70.84;98238.31;5081230;27;103286;-64
2023/09/12 00:04:57;;;;;;;72.60;68.90;;;;;;;26.47;68.26;98241.38;5081665;27;103404;-64
2023/09/12 00:07:25;;;;;;;67.47;64.07;;;;;;;26.10;69.68;98236.88;5083077;27;102795;-64
2023/09/12 00:09:53;;;;;;;58.67;55.25;;;;;;;26.14;69.19;98232.69;5057936;27;103899;-65
2023/09/12 00:12:24;;;;;;;52.25;49.35;;;;;;;26.17;69.40;98234.97;5081638;27;104175;-64
2023/09/12 00:14:52;;;;;;;53.72;50.50;;;;;;;25.83;70.70;98226.25;5081435;27;103210;-65
2023/09/12 00:17:22;;;;;;;51.77;48.83;;;;;;;25.98;69.65;98230.50;5083185;27;102868;-65
2023/09/12 00:19:52;;;;;;;49.30;46.30;;;;;;;25.93;70.04;98225.78;5083517;27;103275;-64
2023/09/12 00:22:20;;;;;;;43.83;41.13;;;;;;;26.18;68.63;98223.94;5080409;27;103306;-64
2023/09/12 00:24:48;;;;;;;46.13;43.33;;;;;;;26.06;69.11;98220.25;5080244;27;103226;-64
2023/09/12 00:27:16;;;;;;;40.40;37.60;;;;;;;26.38;67.92;98224.59;5082982;27;104175;-64
2023/09/12 00:29:45;;;;;;;37.80;35.50;;;;;;;25.79;70.92;98225.03;5081532;27;103923;-64
2023/09/12 00:32:13;;;;;;;34.92;32.80;;;;;;;25.70;71.05;98218.22;5063726;27;103837;-64
2023/09/12 00:34:43;;;;;;;35.00;32.80;;;;;;;26.19;68.08;98213.94;5082686;27;103202;-64
2023/09/12 00:37:11;;;;;;;34.05;31.75;;;;;;;25.62;71.45;98213.09;5064289;27;102683;-64
2023/09/12 00:39:39;;;;;;;33.40;31.08;;;;;;;25.66;71.18;98216.16;5081605;27;103112;-64
2023/09/12 00:42:08;;;;;;;31.35;29.23;;;;;;;26.18;69.18;98217.69;5060454;27;104210;-64
2023/09/12 00:44:36;;;;;;;31.08;28.98;;;;;;;26.35;67.31;98226.91;5067046;27;104199;-64
2023/09/12 00:47:05;;;;;;;35.27;32.77;;;;;;;26.64;66.48;98223.47;5081861;27;102875;-64
2023/09/12 00:49:34;;;;;;;32.60;30.40;;;;;;;27.18;64.08;98219.97;5057375;27;104382;-64
2023/09/12 00:52:04;;;;;;;37.97;35.58;;;;;;;26.57;66.71;98221.91;5058431;27;104373;-64
2023/09/12 00:54:32;;;;;;;55.13;51.83;;;;;;;25.64;71.56;98221.81;5080012;27;103354;-65
2023/09/12 00:57:00;;;;;;;52.47;49.58;;;;;;;26.11;68.98;98219.56;5063721;27;102766;-64
2023/09/12 00:59:29;;;;;;;48.90;45.80;;;;;;;26.02;69.55;98221.72;5061267;27;102865;-64
2023/09/12 01:01:57;;;;;;;31.38;29.48;;;;;;;27.18;65.32;98219.97;5064011;27;103203;-64
2023/09/12 01:04:25;;;;;;;61.13;58.30;;;;;;;27.67;60.98;98218.94;5076066;27;103298;-65
2023/09/12 01:07:04;;;;;;;96.23;92.23;;;;;;;28.06;59.46;98218.34;5081826;27;102683;-64
2023/09/12 01:09:32;;;;;;;37.65;35.38;;;;;;;27.05;63.99;98220.16;5064856;27;104230;-64
2023/09/12 01:12:02;;;;;;;99.18;94.32;;;;;;;26.11;67.77;98214.16;5074834;27;103920;-64
2023/09/12 01:14:31;;;;;;;54.93;51.37;;;;;;;25.85;70.22;98213.31;5058120;27;106242;-65
2023/09/12 01:17:00;;;;;;;87.82;83.57;;;;;;;26.40;67.69;98216.22;5080458;27;102960;-64
2023/09/12 01:19:29;;;;;;;73.13;69.22;;;;;;;26.52;67.16;98208.19;5062419;27;102819;-65
2023/09/12 01:22:28;;;;;;;78.15;74.13;;;;;;;26.25;67.98;98216.56;5080121;27;103358;-64
2023/09/12 01:25:29;;;;;;;64.70;61.10;;;;;;;26.40;66.78;98210.81;5075694;27;103436;-64
2023/09/12 01:28:03;;;;;;;83.78;79.75;;;;;;;26.36;67.08;98209.59;5076595;27;102659;-64
2023/09/12 01:30:33;;;;;;;105.15;100.22;;;;;;;25.75;70.13;98207.56;5063963;27;102805;-64
2023/09/12 01:33:02;;;;;;;131.88;125.80;;;;;;;25.02;73.32;98210.84;5061393;27;103984;-64
2023/09/12 01:35:30;;;;;;;107.73;103.03;;;;;;;26.40;67.28;98218.94;5056076;27;103330;-64
2023/09/12 01:37:58;;;;;;;65.82;62.33;;;;;;;26.86;63.88;98211.19;5057981;27;102755;-64
2023/09/12 01:40:34;;;;;;;95.22;90.72;;;;;;;26.08;67.51;98217.34;5075799;27;103171;-64
2023/09/12 01:43:06;;;;;;;92.93;88.43;;;;;;;26.26;66.33;98214.69;5059263;27;104100;-64
2023/09/12 01:45:34;;;;;;;139.52;133.45;;;;;;;26.50;67.46;98214.66;5075422;27;103467;-64
2023/09/12 01:48:03;;;;;;;78.07;74.03;;;;;;;26.59;65.70;98214.38;5060306;27;103091;-64
2023/09/12 01:50:32;;;;;;;68.80;65.32;;;;;;;27.19;63.16;98204.53;5073276;27;103931;-64
2023/09/12 01:53:00;;;;;;;35.08;32.97;;;;;;;27.26;61.81;98219.66;5062150;27;104266;-64
2023/09/12 01:55:31;;;;;;;35.20;33.25;;;;;;;27.75;61.01;98220.47;5055794;27;103633;-64
2023/09/12 01:57:59;;;;;;;49.75;47.35;;;;;;;28.11;58.51;98220.34;5054811;27;102805;-64
2023/09/12 02:00:29;;;;;;;38.65;36.35;;;;;;;27.92;59.72;98216.88;5060708;27;104244;-64
2023/09/12 02:02:57;;;;;;;101.05;96.38;;;;;;;26.56;65.55;98210.22;5076169;27;103608;-64
2023/09/12 02:05:25;;;;;;;257.92;247.30;;;;;;;25.96;69.91;98219.09;5057175;27;104497;-64
2023/09/12 02:07:53;;;;;;;202.47;194.00;;;;;;;26.19;68.02;98219.34;5061837;27;103025;-64
2023/09/12 02:10:21;;;;;;;225.90;216.55;;;;;;;26.01;69.39;98211.13;5078221;27;104232;-64
2023/09/12 02:12:51;;;;;;;197.55;189.23;;;;;;;26.06;69.40;98212.13;5058455;27;103711;-64
2023/09/12 02:15:19;;;;;;;172.60;165.15;;;;;;;25.93;68.88;98209.53;5061748;27;104394;-64
2023/09/12 02:17:50;;;;;;;149.57;143.20;;;;;;;26.37;68.70;98213.97;5061796;27;102717;-65
2023/09/12 02:20:19;;;;;;;111.53;106.35;;;;;;;25.95;68.66;98210.13;5060423;27;104891;-64
2023/09/12 02:22:47;;;;;;;103.68;98.90;;;;;;;25.77;69.38;98204.63;5060491;27;104457;-64
2023/09/12 02:25:15;;;;;;;154.75;147.80;;;;;;;25.42;72.16;98212.34;5061558;27;103043;-64
2023/09/12 02:27:43;;;;;;;143.57;137.07;;;;;;;26.07;70.70;98215.66;5077705;27;103223;-64
2023/09/12 02:30:11;;;;;;;68.40;65.00;;;;;;;26.71;65.27;98209.88;5059931;27;102718;-64
2023/09/12 02:32:39;;;;;;;52.17;49.20;;;;;;;26.82;64.76;98204.56;5060018;27;104287;-65
2023/09/12 02:35:09;;;;;;;30.35;28.35;;;;;;;27.35;61.92;98203.91;5060411;27;103294;-65
2023/09/12 02:37:37;;;;;;;34.20;32.25;;;;;;;27.79;60.33;98208.13;5060467;27;103317;-63
2023/09/12 02:40:06;;;;;;;35.28;32.72;;;;;;;26.97;63.33;98207.75;5059475;27;104092;-63
2023/09/12 02:42:34;;;;;;;41.85;39.20;;;;;;;27.18;63.44;98194.75;5078389;27;103364;-64
2023/09/12 02:45:03;;;;;;;281.73;269.40;;;;;;;26.23;66.89;98194.31;5053955;27;105155;-64
2023/09/12 02:47:31;;;;;;;197.88;189.02;;;;;;;25.87;70.46;98189.59;5074775;27;102645;-64
2023/09/12 02:49:59;;;;;;;129.73;124.03;;;;;;;26.56;67.57;98183.16;5058840;27;102668;-64
2023/09/12 02:52:31;;;;;;;110.85;105.43;;;;;;;26.61;66.69;98188.72;5055220;27;104246;-64
2023/09/12 02:54:59;;;;;;;123.57;117.78;;;;;;;27.14;63.96;98186.25;5072186;27;103235;-64
2023/09/12 02:57:27;;;;;;;112.03;106.38;;;;;;;27.40;62.28;98185.03;5070559;27;102931;-64
2023/09/12 02:59:55;;;;;;;108.10;102.55;;;;;;;27.63;61.07;98179.75;5053823;27;104377;-64
2023/09/12 03:02:23;;;;;;;94.57;89.78;;;;;;;27.71;60.84;98184.84;5047358;27;104097;-64
2023/09/12 03:04:51;;;;;;;81.63;77.17;;;;;;;27.86;59.59;98177.09;5073777;27;103191;-64
2023/09/12 03:07:19;;;;;;;82.25;78.05;;;;;;;27.84;59.52;98186.53;5059127;27;103407;-65
2023/09/12 03:09:50;;;;;;;69.82;66.10;;;;;;;28.07;58.76;98184.69;5055682;27;102747;-64
2023/09/12 03:12:18;;;;;;;70.95;67.05;;;;;;;27.97;59.11;98181.72;5073332;27;103370;-65
2023/09/12 03:14:46;;;;;;;72.37;68.50;;;;;;;27.70;59.80;98188.63;5075928;27;103188;-65
2023/09/12 03:17:14;;;;;;;73.35;69.07;;;;;;;27.64;59.90;98186.84;5055442;27;102698;-64
2023/09/12 03:19:41;;;;;;;67.80;64.20;;;;;;;27.58;60.69;98194.00;5054967;27;103971;-64
2023/09/12 03:22:09;;;;;;;69.97;65.95;;;;;;;27.76;59.52;98195.00;5057383;27;105508;-64
2023/09/12 03:24:39;;;;;;;58.97;55.95;;;;;;;27.59;60.55;98200.28;5057808;27;103280;-64
2023/09/12 03:27:09;;;;;;;50.53;47.33;;;;;;;26.83;62.43;98195.41;5056740;27;102873;-64
2023/09/12 03:29:37;;;;;;;55.08;52.17;;;;;;;26.92;62.32;98185.88;5047597;27;103382;-64
2023/09/12 03:32:05;;;;;;;41.83;39.17;;;;;;;26.20;65.20;98193.91;5075535;27;104197;-64
2023/09/12 03:34:33;;;;;;;37.33;34.90;;;;;;;26.62;64.32;98186.84;5055797;27;104207;-64
2023/09/12 03:37:01;;;;;;;54.88;51.97;;;;;;;27.51;59.80;98184.28;5052777;27;102903;-64
2023/09/12 03:39:29;;;;;;;34.15;31.85;;;;;;;26.65;64.29;98191.81;5058148;27;103927;-65
2023/09/12 03:41:57;;;;;;;51.53;48.63;;;;;;;27.05;61.90;98183.03;5061058;27;104244;-64
2023/09/12 03:44:26;;;;;;;35.58;33.17;;;;;;;25.52;67.53;98176.72;5053364;27;104276;-64
2023/09/12 03:46:54;;;;;;;37.42;34.70;;;;;;;26.18;66.08;98177.91;5060895;27;102833;-64
2023/09/12 03:49:23;;;;;;;49.67;46.70;;;;;;;27.13;61.98;98181.88;5053640;27;103974;-64
2023/09/12 03:51:51;;;;;;;38.13;35.73;;;;;;;27.09;61.95;98180.66;5050351;27;104285;-64
2023/09/12 03:54:19;;;;;;;44.45;42.05;;;;;;;27.55;59.61;98177.38;5057889;27;103726;-64
2023/09/12 03:56:47;;;;;;;42.50;40.30;;;;;;;27.83;58.00;98177.56;5057743;27;103074;-64
2023/09/12 03:59:15;;;;;;;48.20;45.70;;;;;;;27.60;59.60;98174.78;5056223;27;102793;-64
2023/09/12 04:01:45;;;;;;;56.08;53.05;;;;;;;27.86;57.83;98174.38;5056813;27;104443;-64
2023/09/12 04:04:13;;;;;;;53.13;50.03;;;;;;;27.78;57.71;98172.00;5057323;27;104080;-65
2023/09/12 04:06:41;;;;;;;51.08;48.42;;;;;;;27.70;58.82;98180.47;5058351;27;102871;-65
2023/09/12 04:09:09;;;;;;;58.50;55.45;;;;;;;27.71;58.29;98187.53;5054195;27;104115;-64
2023/09/12 04:11:37;;;;;;;57.43;54.43;;;;;;;27.69;58.48;98170.69;5058095;27;103700;-65
2023/09/12 04:14:15;;;;;;;49.22;46.63;;;;;;;27.97;57.44;98176.28;5047092;27;104145;-65
2023/09/12 04:16:44;;;;;;;55.95;53.25;;;;;;;28.09;56.67;98173.63;5045813;27;102761;-65
2023/09/12 04:19:13;;;;;;;69.70;66.30;;;;;;;27.96;57.27;98174.63;5050773;27;103300;-65
2023/09/12 04:21:41;;;;;;;63.55;60.15;;;;;;;28.03;57.33;98179.97;5044996;27;104070;-64
2023/09/12 04:24:09;;;;;;;70.78;67.57;;;;;;;28.16;56.52;98186.00;5050898;27;103245;-65
2023/09/12 04:26:38;;;;;;;74.38;70.60;;;;;;;27.79;57.63;98184.50;5053557;27;102673;-65
2023/09/12 04:29:06;;;;;;;72.03;68.22;;;;;;;27.31;59.52;98187.25;5056989;27;104285;-65
2023/09/12 04:31:34;;;;;;;32.95;30.75;;;;;;;26.66;64.94;98182.63;5054618;27;103583;-64
2023/09/12 04:34:03;;;;;;;56.47;53.47;;;;;;;27.54;60.10;98184.66;5054728;27;105052;-65
2023/09/12 04:36:33;;;;;;;42.50;39.80;;;;;;;26.45;63.47;98182.00;5057998;27;102901;-65
2023/09/12 04:39:01;;;;;;;31.55;29.25;;;;;;;26.42;65.26;98187.03;5058119;27;103972;-64
2023/09/12 04:41:30;;;;;;;58.42;55.53;;;;;;;27.46;60.68;98179.56;5058356;27;103287;-64
2023/09/12 04:43:59;;;;;;;61.00;57.72;;;;;;;27.62;59.28;98169.97;5040145;27;104115;-64
2023/09/12 04:46:26;;;;;;;59.78;56.80;;;;;;;27.63;58.52;98158.03;5057613;27;103028;-64
2023/09/12 04:48:54;;;;;;;61.42;58.45;;;;;;;27.67;59.26;98164.66;5055913;27;103752;-64
2023/09/12 04:51:24;;;;;;;63.90;60.70;;;;;;;27.65;59.23;98161.34;5059889;27;104182;-64
2023/09/12 04:53:52;;;;;;;46.00;43.00;;;;;;;26.79;62.11;98175.22;5058048;27;103433;-64
2023/09/12 04:56:24;;;;;;;75.20;71.35;;;;;;;27.50;59.40;98175.34;5073567;27;103760;-64
2023/09/12 04:58:53;;;;;;;72.70;69.00;;;;;;;27.51;59.03;98170.72;5054381;27;102785;-64
2023/09/12 05:01:21;;;;;;;74.60;70.65;;;;;;;27.55;59.43;98171.94;5072604;27;104030;-64
2023/09/12 05:03:49;;;;;;;80.95;77.20;;;;;;;28.04;57.35;98171.59;5053843;27;103198;-64
2023/09/12 05:06:17;;;;;;;79.13;75.23;;;;;;;27.94;57.50;98174.03;5060379;27;102944;-64
2023/09/12 05:08:46;;;;;;;73.78;70.30;;;;;;;28.22;56.76;98175.25;5080320;27;102990;-64
2023/09/12 05:11:15;;;;;;;85.77;81.83;;;;;;;28.37;55.73;98176.47;5057029;27;103480;-64
2023/09/12 05:13:43;;;;;;;93.68;89.18;;;;;;;28.23;56.70;98174.22;5063244;27;104182;-64
2023/09/12 05:16:11;;;;;;;91.22;87.30;;;;;;;28.43;55.72;98177.41;5057852;27;103311;-64
2023/09/12 05:18:39;;;;;;;90.13;85.57;;;;;;;28.44;55.88;98176.31;5058420;27;103174;-65
2023/09/12 05:21:07;;;;;;;93.65;89.35;;;;;;;28.41;55.05;98177.63;5077682;27;103715;-62
2023/09/12 05:23:35;;;;;;;97.20;92.97;;;;;;;28.62;54.94;98178.91;5058431;27;104482;-62
2023/09/12 05:26:07;;;;;;;111.93;106.95;;;;;;;28.40;55.32;98175.16;5051351;27;103111;-62
2023/09/12 05:28:35;;;;;;;112.05;107.05;;;;;;;28.12;56.87;98173.97;5056405;27;104200;-62
2023/09/12 05:31:05;;;;;;;101.83;97.10;;;;;;;27.50;59.21;98175.34;5056221;27;104070;-62
2023/09/12 05:33:35;;;;;;;92.90;88.70;;;;;;;27.31;61.40;98170.19;5057424;27;106090;-62
2023/09/12 05:36:04;;;;;;;69.40;65.40;;;;;;;26.32;64.22;98195.69;5062473;27;102721;-62
2023/09/12 05:38:32;;;;;;;59.15;55.78;;;;;;;26.21;66.11;98192.88;5058523;27;104370;-61
2023/09/12 05:41:00;;;;;;;89.78;85.80;;;;;;;27.96;58.78;98184.63;5073545;27;103925;-61
2023/09/12 05:43:30;;;;;;;96.07;91.77;;;;;;;28.35;57.04;98194.06;5051518;27;103189;-61
2023/09/12 05:45:58;;;;;;;93.90;89.90;;;;;;;28.57;56.35;98197.81;5052739;27;102952;-62
2023/09/12 05:48:26;;;;;;;103.30;99.00;;;;;;;28.81;55.60;98194.03;5054960;27;103128;-62
2023/09/12 05:50:54;;;;;;;116.78;111.85;;;;;;;28.84;55.11;98196.28;5058420;27;104276;-61
2023/09/12 05:53:23;;;;;;;123.63;118.53;;;;;;;28.62;55.25;98197.94;5055513;27;105236;-61
2023/09/12 05:55:51;;;;;;;118.70;113.87;;;;;;;28.97;55.03;98203.38;5061253;27;103077;-64
2023/09/12 05:58:27;;;;;;;114.97;109.95;;;;;;;28.66;56.04;98201.88;5057060;27;104068;-64
2023/09/12 06:01:00;;;;;;;136.83;131.13;;;;;;;29.33;54.06;98207.66;5076982;27;104295;-61
2023/09/12 06:03:28;;;;;;;152.55;146.48;;;;;;;29.47;53.03;98198.97;5054133;27;105072;-64
2023/09/12 06:05:57;;;;;;;130.10;124.40;;;;;;;29.31;53.81;98202.44;5077496;27;102724;-65
2023/09/12 06:08:25;;;;;;;168.07;161.38;;;;;;;29.70;52.81;98203.47;5076687;27;102712;-64
2023/09/12 06:10:54;;;;;;;142.20;135.90;;;;;;;29.64;53.24;98218.06;5061417;27;104275;-64
2023/09/12 06:13:23;;;;;;;168.60;161.95;;;;;;;29.88;52.36;98211.44;5064094;27;104388;-64
2023/09/12 06:15:50;;;;;;;163.17;156.30;;;;;;;29.67;52.97;98209.41;5084249;27;102979;-64
2023/09/12 06:18:20;;;;;;;182.98;175.52;;;;;;;29.88;52.42;98211.44;5079047;27;104132;-64
2023/09/12 06:20:48;;;;;;;187.53;179.80;;;;;;;29.49;53.36;98215.03;5077607;27;103321;-64
2023/09/12 06:23:16;;;;;;;181.20;173.57;;;;;;;28.92;54.77;98220.38;5081114;27;103293;-64
2023/09/12 06:25:44;;;;;;;200.33;191.83;;;;;;;29.11;53.99;98227.31;5081905;27;102911;-64
2023/09/12 06:28:12;;;;;;;207.33;198.67;;;;;;;29.41;53.39;98221.69;5080778;27;102933;-64
2023/09/12 06:30:40;;;;;;;249.75;239.98;;;;;;;29.79;52.66;98226.47;5078064;27;104006;-64
2023/09/12 06:33:08;;;;;;;307.27;295.23;;;;;;;30.28;51.31;98225.75;5062882;27;103179;-65
2023/09/12 06:35:37;;;;;;;198.40;190.18;;;;;;;29.51;54.11;98229.22;5084131;27;102803;-65
2023/09/12 06:38:09;;;;;;;259.42;248.93;;;;;;;29.53;53.03;98227.09;5063088;27;104029;-65
2023/09/12 06:40:37;;;;;;;155.07;147.93;;;;;;;27.64;59.29;98230.25;5080620;27;104036;-65
2023/09/12 06:43:05;;;;;;;209.20;200.80;;;;;;;29.55;54.13;98219.50;5062696;27;104198;-65
2023/09/12 06:45:32;;;;;;;287.23;275.92;;;;;;;30.29;51.64;98229.28;5080475;27;102507;-62
2023/09/12 06:48:00;;;;;;;246.85;236.98;;;;;;;29.40;53.20;98230.91;5064953;27;104552;-62
2023/09/12 06:50:28;;;;;;;217.75;208.75;;;;;;;29.65;54.17;98227.84;5082722;27;103305;-62
2023/09/12 06:53:03;;;;;;;259.98;249.55;;;;;;;30.28;52.22;98233.91;5082294;27;103289;-62
2023/09/12 06:55:31;;;;;;;293.23;282.00;;;;;;;30.69;50.88;98235.38;5082820;27;103021;-62
2023/09/12 06:58:00;;;;;;;308.63;296.37;;;;;;;30.72;50.15;98237.63;5081146;27;103729;-62
2023/09/12 07:00:28;;;;;;;343.55;329.95;;;;;;;30.67;49.88;98242.16;5081454;27;104171;-62
2023/09/12 07:02:56;;;;;;;324.52;311.92;;;;;;;30.95;49.49;98244.78;5077075;27;103228;-62
2023/09/12 07:05:24;;;;;;;342.13;328.42;;;;;;;31.29;48.89;98240.88;5078283;27;102871;-62
2023/09/12 07:07:53;;;;;;;340.52;326.77;;;;;;;31.28;48.88;98239.22;5074750;27;102808;-62
2023/09/12 07:10:23;;;;;;;295.80;283.90;;;;;;;30.64;50.66;98246.22;5072822;27;104284;-62
2023/09/12 07:12:53;;;;;;;311.87;299.80;;;;;;;30.95;50.63;98245.63;5073301;27;103237;-62
2023/09/12 07:15:22;;;;;;;316.67;303.85;;;;;;;31.50;49.87;98247.41;5077268;27;102670;-62
2023/09/12 07:17:50;;;;;;;347.53;333.63;;;;;;;31.99;47.91;98251.78;5075621;27;103041;-62
2023/09/12 07:20:20;;;;;;;337.52;323.83;;;;;;;32.35;46.79;98247.47;5079903;27;104543;-65
2023/09/12 07:22:48;;;;;;;326.93;314.10;;;;;;;31.25;48.62;98258.00;5076261;27;103201;-65
2023/09/12 07:25:17;;;;;;;264.42;253.55;;;;;;;29.38;54.53;98260.25;5080376;27;102913;-65
2023/09/12 07:27:46;;;;;;;322.20;309.60;;;;;;;30.94;51.17;98260.31;5078081;27;104003;-62
2023/09/12 07:30:14;;;;;;;315.13;303.10;;;;;;;32.05;48.20;98264.44;5080723;27;104605;-62
2023/09/12 07:32:42;;;;;;;300.35;288.20;;;;;;;32.42;46.23;98260.94;5083007;27;103113;-65
2023/09/12 07:35:10;;;;;;;308.10;295.27;;;;;;;32.51;46.46;98262.91;5080930;27;103119;-65
2023/09/12 07:37:38;;;;;;;300.92;288.70;;;;;;;32.55;46.38;98255.88;5077787;27;103980;-65
2023/09/12 07:40:09;;;;;;;316.83;304.23;;;;;;;32.73;46.25;98253.81;5080107;27;104264;-65
2023/09/12 07:42:37;;;;;;;297.75;285.35;;;;;;;32.60;46.57;98255.91;5079458;27;103176;-62
2023/09/12 07:45:08;;;;;;;308.75;296.67;;;;;;;32.82;47.57;98257.66;5082719;27;102712;-62
2023/09/12 07:47:39;;;;;;;315.20;302.90;;;;;;;33.56;46.13;98259.16;5084379;27;102879;-65
2023/09/12 07:50:10;;;;;;;285.85;274.35;;;;;;;34.91;42.89;98257.69;5076355;27;103413;-64
2023/09/12 07:52:38;;;;;;;262.27;251.38;;;;;;;35.02;42.69;98257.66;5064213;27;103484;-64
2023/09/12 07:55:08;;;;;;;276.10;264.48;;;;;;;34.92;42.48;98253.81;5078681;27;103002;-63
2023/09/12 07:57:38;;;;;;;331.88;318.38;;;;;;;35.79;40.96;98252.41;5083834;27;104109;-60
2023/09/12 08:00:13;;;;;;;316.07;302.90;;;;;;;37.00;38.55;98254.22;5081582;27;103368;-60
2023/09/12 08:02:41;;;;;;;297.45;284.60;;;;;;;35.74;39.94;98249.72;5081053;27;103177;-62
2023/09/12 08:05:13;;;;;;;301.60;288.70;;;;;;;35.83;40.06;98248.00;5080445;27;102881;-64
2023/09/12 08:07:41;;;;;;;264.80;253.50;;;;;;;35.60;40.28;98258.84;5078893;27;104048;-62
2023/09/12 08:10:10;;;;;;;216.77;207.07;;;;;;;34.20;43.51;98258.78;5075947;27;104161;-62
2023/09/12 08:12:40;;;;;;;234.70;223.90;;;;;;;31.73;47.29;98262.69;5076146;27;103524;-61
2023/09/12 08:15:16;;;;;;;258.35;247.18;;;;;;;32.60;46.60;98260.53;5083539;27;102938;-61
2023/09/12 08:17:51;;;;;;;245.32;234.55;;;;;;;35.26;43.12;98264.19;5082647;27;102915;-63
2023/09/12 08:20:27;;;;;;;302.43;290.07;;;;;;;36.65;40.13;98262.84;5081449;27;103365;-63
2023/09/12 08:22:55;;;;;;;271.52;259.77;;;;;;;36.10;38.97;98272.31;5086528;27;104120;-65
2023/09/12 08:25:24;;;;;;;220.90;211.18;;;;;;;35.41;41.74;98267.72;5084403;27;102819;-64
2023/09/12 08:27:52;;;;;;;252.27;240.90;;;;;;;34.38;43.56;98270.06;5082890;27;104123;-64
2023/09/12 08:30:23;;;;;;;239.32;228.93;;;;;;;35.29;42.09;98256.22;5083066;27;104281;-64
2023/09/12 08:32:51;;;;;;;254.32;243.25;;;;;;;35.81;40.51;98261.22;5084553;27;103239;-64
2023/09/12 08:35:19;;;;;;;266.40;255.70;;;;;;;36.34;39.25;98258.69;5065213;27;102762;-64
2023/09/12 08:37:54;;;;;;;215.95;206.30;;;;;;;36.08;40.93;98259.97;5087050;27;102854;-62
2023/09/12 08:40:23;;;;;;;239.10;228.80;;;;;;;36.39;39.46;98255.88;5067477;27;104324;-62
2023/09/12 08:42:53;;;;;;;282.08;270.58;;;;;;;36.48;39.81;98246.72;5084941;27;103175;-65
2023/09/12 08:45:22;;;;;;;260.00;249.10;;;;;;;36.42;39.50;98252.56;5065873;27;102824;-63
2023/09/12 08:47:58;;;;;;;238.30;228.15;;;;;;;37.12;38.19;98260.16;5085410;27;103812;-62
2023/09/12 08:50:30;;;;;;;222.23;212.77;;;;;;;37.78;36.85;98256.63;5082899;27;103324;-62
2023/09/12 08:53:04;;;;;;;205.82;196.77;;;;;;;38.61;35.80;98253.97;5069565;27;103214;-64
2023/09/12 08:55:36;;;;;;;219.13;209.63;;;;;;;38.74;36.08;98257.88;5083002;27;103111;-61
2023/09/12 08:58:06;;;;;;;218.13;208.57;;;;;;;38.59;36.83;98250.69;5084378;27;102701;-65
2023/09/12 09:00:37;;;;;;;236.38;226.27;;;;;;;38.36;37.16;98257.16;5086297;27;104129;-60
2023/09/12 09:03:08;;;;;;;242.50;232.55;;;;;;;37.81;38.00;98256.03;5084457;27;103210;-60
2023/09/12 09:05:38;;;;;;;223.93;213.95;;;;;;;38.11;37.30;98261.09;5085359;27;102663;-62
2023/09/12 09:08:08;;;;;;;217.13;207.93;;;;;;;38.34;36.12;98253.06;5082475;27;103072;-65
2023/09/12 09:10:36;;;;;;;146.33;139.77;;;;;;;39.52;34.64;98260.53;5062763;27;104080;-61
2023/09/12 09:13:19;;;;;;;166.60;158.97;;;;;;;39.61;34.55;98255.09;5085198;27;103328;-63
2023/09/12 09:15:50;;;;;;;169.87;161.60;;;;;;;38.92;35.59;98256.19;5084102;27;102768;-61
2023/09/12 09:18:20;;;;;;;150.68;143.60;;;;;;;39.12;34.79;98253.03;5083356;27;103798;-63
2023/09/12 09:20:51;;;;;;;129.43;123.68;;;;;;;39.48;34.56;98256.75;5086709;27;103944;-63
2023/09/12 09:23:21;;;;;;;164.33;157.27;;;;;;;39.55;34.71;98237.00;5084821;27;105262;-63
2023/09/12 09:25:53;;;;;;;211.90;202.98;;;;;;;38.49;36.01;98244.50;5086685;27;102718;-64
2023/09/12 09:28:22;;;;;;;131.20;125.40;;;;;;;40.05;33.32;98237.81;5066173;27;103784;-64
2023/09/12 09:30:54;;;;;;;88.53;84.33;;;;;;;40.26;32.39;98236.19;5081488;27;104111;-64
2023/09/12 09:33:23;;;;;;;100.55;95.82;;;;;;;39.97;32.79;98220.03;5083195;27;103252;-61
2023/09/12 09:36:05;;;;;;;82.00;78.00;;;;;;;40.65;31.21;98221.69;5085200;27;102651;-64
2023/09/12 09:38:35;;;;;;;87.75;83.57;;;;;;;41.07;31.70;98210.81;5085954;27;102784;-62
2023/09/12 09:41:07;;;;;;;82.40;78.13;;;;;;;40.74;31.93;98211.47;5085670;27;103768;-61
2023/09/12 09:43:35;;;;;;;103.63;98.88;;;;;;;39.54;32.77;98218.75;5086224;27;103546;-62
2023/09/12 09:46:04;;;;;;;81.57;77.53;;;;;;;40.46;31.67;98211.59;5087929;27;102687;-61
2023/09/12 09:48:32;;;;;;;70.05;66.70;;;;;;;41.08;30.72;98211.66;5082200;27;103939;-63
2023/09/12 09:51:04;;;;;;;73.85;70.15;;;;;;;41.10;31.95;98219.66;5085576;27;104168;-62
2023/09/12 09:53:34;;;;;;;77.22;73.30;;;;;;;41.22;31.75;98217.88;5083880;27;103332;-62
2023/09/12 09:56:10;;;;;;;83.45;79.45;;;;;;;40.78;31.75;98210.53;5087262;27;102619;-62
2023/09/12 09:58:42;;;;;;;80.50;76.63;;;;;;;41.05;31.52;98213.09;5068524;27;104118;-64
2023/09/12 10:01:17;;;;;;;87.68;83.30;;;;;;;41.11;31.19;98210.19;5082634;27;103768;-61
2023/09/12 10:03:49;;;;;;;99.30;94.43;;;;;;;41.19;32.63;98212.16;5083178;27;103203;-62
2023/09/12 10:06:19;;;;;;;79.75;75.68;;;;;;;41.18;30.90;98205.84;5086524;27;102775;-61
2023/09/12 10:08:52;;;;;;;94.90;90.27;;;;;;;39.11;34.17;98208.03;5084753;27;103398;-63
2023/09/12 10:11:27;;;;;;;202.07;194.25;;;;;;;37.64;36.50;98200.59;5067488;27;104922;-63
2023/09/12 10:14:03;;;;;;;95.43;91.07;;;;;;;40.22;33.33;98188.19;5086275;27;103507;-64
2023/09/12 10:16:41;;;;;;;80.72;76.63;;;;;;;41.27;31.45;98181.72;5087600;27;102604;-61
2023/09/12 10:19:16;;;;;;;76.32;72.57;;;;;;;41.49;31.28;98189.94;5088044;27;103049;-63
2023/09/12 10:21:49;;;;;;;107.63;102.93;;;;;;;40.66;33.21;98193.69;5087666;27;103413;-60
2023/09/12 10:24:21;;;;;;;217.27;208.55;;;;;;;35.63;38.99;98198.69;5085119;27;103249;-60
2023/09/12 10:26:58;;;;;;;201.23;193.13;;;;;;;36.96;37.65;98195.41;5085724;27;102710;-61
2023/09/12 10:29:26;;;;;;;77.47;73.80;;;;;;;39.03;33.93;98185.84;5086511;27;104088;-59
2023/09/12 10:31:56;;;;;;;95.90;91.17;;;;;;;37.87;35.16;98188.66;5083424;27;103284;-64
2023/09/12 10:34:26;;;;;;;108.30;103.60;;;;;;;38.07;35.86;98182.03;5084906;27;103619;-61
2023/09/12 10:36:58;;;;;;;89.85;85.55;;;;;;;40.19;33.56;98184.09;5087730;27;102928;-62
2023/09/12 10:39:28;;;;;;;92.90;88.57;;;;;;;38.34;34.56;98192.38;5085709;27;102936;-61
2023/09/12 10:41:59;;;;;;;90.85;86.57;;;;;;;40.21;32.86;98187.34;5085584;27;103512;-62
2023/09/12 10:44:30;;;;;;;88.50;84.15;;;;;;;39.81;33.12;98182.78;5085196;27;103185;-63
2023/09/12 10:47:08;;;;;;;67.80;64.53;;;;;;;40.61;32.01;98184.69;5084551;27;103417;-61
2023/09/12 10:49:36;;;;;;;136.90;130.87;;;;;;;36.08;35.88;98188.50;5086210;27;104023;-63
2023/09/12 10:52:04;;;;;;;81.75;78.10;;;;;;;38.63;34.84;98185.47;5083793;27;103684;-63
2023/09/12 10:54:40;;;;;;;82.55;78.72;;;;;;;40.66;32.03;98177.06;5085980;27;104283;-60
2023/09/12 10:57:15;;;;;;;104.88;100.00;;;;;;;37.06;35.76;98189.75;5083833;27;102819;-62
2023/09/12 11:00:12;;;;;;;98.80;94.40;;;;;;;37.48;33.55;98188.13;5086415;27;104486;-61
2023/09/12 11:02:43;;;;;;;96.43;92.20;;;;;;;39.75;33.06;98184.06;5086546;27;103509;-61
2023/09/12 11:05:36;;;;;;;90.28;86.13;;;;;;;39.81;30.70;98188.31;5063846;27;103154;-64
2023/09/12 11:08:07;;;;;;;83.13;79.13;;;;;;;40.79;31.15;98180.88;5065635;27;103087;-63
2023/09/12 11:10:36;;;;;;;64.35;61.22;;;;;;;41.29;29.79;98185.00;5076685;27;102950;-63
2023/09/12 11:13:06;;;;;;;84.57;80.38;;;;;;;39.26;31.42;98184.84;5086211;27;103778;-64
2023/09/12 11:16:12;;;;;;;71.50;68.15;;;;;;;39.81;29.79;98180.00;5079383;27;103010;-65